Airport ID:KJTC
Update Time (UTC):20/05/2019 00:56
Wind Speed (Knots):24
Wind Direction (Magnetic):190
Temperature (°C):14
Dew Point (°C):-10
Humidity (%):18
Altimeter (inHg):29.86
Density Altitude (Feet):8700
Visibility (Miles):10+
Clouds (Hundreds of feet):CLR
Present Weather:
METAR:METAR KJTC 200055Z AUTO 20025G37KT 10SM CLR 14/M10 A2986 RMK AO2

The data displayed is for advisory purposes only and is not to be used for flight planning or operations.

This page is not automatically refreshed. Reload the page to see current data.